createdAt,value
2023-02-19T00:01:36.017Z,57.47
2023-02-19T00:04:04.703Z,57.38
2023-02-19T00:06:32.302Z,57.33
2023-02-19T00:09:05.253Z,57.32
2023-02-19T00:11:33.536Z,57.27
2023-02-19T00:14:00.740Z,57.23
2023-02-19T00:16:36.121Z,57.31
2023-02-19T00:19:05.834Z,57.25
2023-02-19T00:21:34.606Z,57.24
2023-02-19T00:24:03.204Z,57.22
2023-02-19T00:26:30.263Z,57.10
2023-02-19T00:28:57.584Z,56.92
2023-02-19T00:31:25.216Z,56.65
2023-02-19T00:33:55.169Z,56.69
2023-02-19T00:36:23.060Z,56.60
2023-02-19T00:38:50.210Z,56.52
2023-02-19T00:41:21.363Z,56.42
2023-02-19T00:43:56.904Z,56.40
2023-02-19T00:46:28.556Z,56.38
2023-02-19T00:48:56.014Z,56.34
2023-02-19T00:51:25.113Z,56.31
2023-02-19T00:53:52.359Z,56.47
2023-02-19T00:56:20.231Z,56.66
2023-02-19T00:58:47.129Z,56.78
2023-02-19T01:01:14.080Z,56.82
2023-02-19T01:03:40.961Z,56.95
2023-02-19T01:06:09.428Z,57.03
2023-02-19T01:08:36.764Z,57.24
2023-02-19T01:11:05.486Z,57.52
2023-02-19T01:13:33.150Z,57.65
2023-02-19T01:16:04.876Z,57.71
2023-02-19T01:18:33.283Z,57.76
2023-02-19T01:21:04.675Z,57.90
2023-02-19T01:23:36.297Z,57.97
2023-02-19T01:26:05.745Z,57.91
2023-02-19T01:28:32.879Z,57.78
2023-02-19T01:31:03.841Z,57.48
2023-02-19T01:33:31.259Z,57.45
2023-02-19T01:35:58.610Z,57.40
2023-02-19T01:38:26.119Z,57.37
2023-02-19T01:42:44.184Z,58.08
2023-02-19T01:45:32.139Z,57.77
2023-02-19T01:48:21.568Z,57.74
2023-02-19T01:51:02.692Z,57.81
2023-02-19T01:53:32.728Z,57.92
2023-02-19T01:56:01.106Z,58.18
2023-02-19T01:58:31.658Z,58.17
2023-02-19T02:01:01.621Z,58.14
2023-02-19T02:03:29.810Z,58.24
2023-02-19T02:06:03.222Z,58.41
2023-02-19T02:08:50.735Z,58.39
2023-02-19T02:11:21.779Z,58.46
2023-02-19T02:13:52.245Z,58.35
2023-02-19T02:16:43.853Z,58.19
2023-02-19T02:19:41.088Z,58.15
2023-02-19T02:22:19.403Z,58.12
2023-02-19T02:24:53.719Z,58.23
2023-02-19T02:28:06.738Z,58.24
2023-02-19T02:30:49.157Z,58.23
2023-02-19T02:33:21.971Z,58.23
2023-02-19T02:36:05.884Z,58.39
2023-02-19T02:38:40.302Z,58.48
2023-02-19T02:41:08.846Z,58.68
2023-02-19T02:43:38.400Z,58.98
2023-02-19T02:46:06.695Z,59.12
2023-02-19T02:48:54.083Z,59.09
2023-02-19T02:51:42.005Z,59.18
2023-02-19T02:54:37.956Z,59.32
2023-02-19T02:57:09.728Z,59.43
2023-02-19T02:59:42.392Z,59.47
2023-02-19T03:02:23.049Z,59.62
2023-02-19T03:05:23.700Z,59.50
2023-02-19T03:08:00.388Z,59.43
2023-02-19T03:10:37.676Z,59.34
2023-02-19T03:13:28.095Z,59.31
2023-02-19T03:16:21.281Z,59.38
2023-02-19T03:19:10.536Z,59.39
2023-02-19T03:21:39.895Z,59.73
2023-02-19T03:24:29.565Z,59.94
2023-02-19T03:26:59.477Z,60.08
2023-02-19T03:29:30.132Z,60.30
2023-02-19T03:32:15.841Z,60.57
2023-02-19T03:34:49.327Z,60.71
2023-02-19T03:37:25.352Z,60.91
2023-02-19T03:39:53.940Z,61.10
2023-02-19T03:42:30.112Z,61.30
2023-02-19T03:45:34.025Z,61.39
2023-02-19T03:48:34.807Z,61.39
2023-02-19T03:51:15.754Z,61.24
2023-02-19T03:53:53.645Z,61.42
2023-02-19T03:56:32.553Z,61.41
2023-02-19T03:59:30.330Z,61.42
2023-02-19T04:02:05.521Z,61.52
2023-02-19T04:05:05.486Z,61.71
2023-02-19T04:07:37.140Z,61.97
2023-02-19T04:10:05.855Z,62.03
2023-02-19T04:12:39.532Z,62.24
2023-02-19T04:15:10.853Z,62.42
2023-02-19T04:17:41.489Z,62.48
2023-02-19T04:20:10.529Z,62.54
2023-02-19T04:22:38.885Z,62.63
2023-02-19T04:25:07.737Z,62.72
2023-02-19T04:27:38.187Z,62.75
2023-02-19T04:30:12.923Z,62.93
2023-02-19T04:32:41.924Z,63.11
2023-02-19T04:35:12.455Z,63.23
2023-02-19T04:37:42.673Z,63.40
2023-02-19T04:40:10.999Z,63.70
2023-02-19T04:42:39.838Z,63.77
2023-02-19T04:45:08.423Z,63.77
2023-02-19T04:47:37.955Z,63.81
2023-02-19T04:50:06.334Z,64.10
2023-02-19T04:52:35.812Z,64.13
2023-02-19T04:55:04.600Z,64.13
2023-02-19T04:57:33.189Z,64.41
2023-02-19T05:00:02.178Z,64.59
2023-02-19T05:02:33.448Z,64.64
2023-02-19T05:05:01.962Z,64.78
2023-02-19T05:07:30.706Z,64.79
2023-02-19T05:09:59.894Z,64.73
2023-02-19T05:12:30.220Z,64.72
2023-02-19T05:14:59.837Z,64.67
2023-02-19T05:17:28.412Z,64.56
2023-02-19T05:20:00.476Z,64.63
2023-02-19T05:22:30.086Z,64.72
2023-02-19T05:25:02.566Z,64.71
2023-02-19T05:27:31.376Z,64.82
2023-02-19T05:29:59.679Z,64.86
2023-02-19T05:32:28.314Z,64.84
2023-02-19T05:34:56.690Z,64.84
2023-02-19T05:37:24.868Z,64.69
2023-02-19T05:39:53.107Z,64.63
2023-02-19T05:42:21.320Z,64.45
2023-02-19T05:44:53.192Z,64.44
2023-02-19T05:47:21.978Z,64.43
2023-02-19T05:49:50.243Z,64.54
2023-02-19T05:52:18.931Z,64.51
2023-02-19T05:54:46.953Z,64.44
2023-02-19T05:57:15.140Z,64.47
2023-02-19T05:59:43.454Z,64.46
2023-02-19T06:02:12.550Z,64.52
2023-02-19T06:04:40.840Z,64.44
2023-02-19T06:07:09.104Z,64.42
2023-02-19T06:09:37.507Z,64.07
2023-02-19T06:12:05.963Z,63.95
2023-02-19T06:14:35.282Z,63.78
2023-02-19T06:17:03.744Z,63.56
2023-02-19T06:19:31.722Z,63.48
2023-02-19T06:22:00.090Z,63.39
2023-02-19T06:24:28.180Z,63.19
2023-02-19T06:26:56.646Z,63.21
2023-02-19T06:29:25.132Z,62.95
2023-02-19T06:31:53.637Z,62.94
2023-02-19T06:34:21.995Z,62.91
2023-02-19T06:36:50.988Z,62.89
2023-02-19T06:39:19.060Z,62.84
2023-02-19T06:41:47.467Z,62.75
2023-02-19T06:44:15.819Z,62.63
2023-02-19T06:46:47.191Z,62.62
2023-02-19T06:49:15.502Z,62.65
2023-02-19T06:51:43.722Z,62.90
2023-02-19T06:54:11.759Z,63.14
2023-02-19T06:56:40.599Z,63.27
2023-02-19T06:59:10.907Z,63.53
2023-02-19T07:01:39.318Z,63.69
2023-02-19T07:04:08.233Z,63.91
2023-02-19T07:06:36.946Z,63.83
2023-02-19T07:09:06.138Z,63.88
2023-02-19T07:11:36.026Z,63.78
2023-02-19T07:14:07.915Z,63.62
2023-02-19T07:16:37.282Z,63.65
2023-02-19T07:19:05.729Z,63.72
2023-02-19T07:21:37.917Z,63.55
2023-02-19T07:24:06.736Z,63.19
2023-02-19T07:26:35.161Z,63.09
2023-02-19T07:29:03.643Z,62.69
2023-02-19T07:31:31.970Z,62.65
2023-02-19T07:34:00.614Z,62.32
2023-02-19T07:36:29.260Z,62.05
2023-02-19T07:38:57.981Z,61.61
2023-02-19T07:41:26.573Z,60.99
2023-02-19T07:43:57.876Z,60.73
2023-02-19T07:46:25.955Z,60.69
2023-02-19T07:49:00.131Z,60.72
2023-02-19T07:51:30.333Z,60.61
2023-02-19T07:54:01.564Z,59.95
2023-02-19T07:56:30.563Z,60.14
2023-02-19T07:59:00.471Z,59.81
2023-02-19T08:01:48.312Z,59.85
2023-02-19T08:04:16.523Z,59.22
2023-02-19T08:06:45.179Z,59.14
2023-02-19T08:09:13.859Z,59.13
2023-02-19T08:12:00.875Z,58.80
2023-02-19T08:14:29.455Z,58.11
2023-02-19T08:16:57.889Z,57.88
2023-02-19T08:19:26.445Z,57.81
2023-02-19T08:21:55.104Z,57.24
2023-02-19T08:24:28.915Z,56.68
2023-02-19T08:26:57.406Z,56.85
2023-02-19T08:29:26.213Z,56.95
2023-02-19T08:31:54.711Z,57.09
2023-02-19T08:34:23.042Z,56.82
2023-02-19T08:36:52.229Z,56.91
2023-02-19T08:39:21.225Z,56.82
2023-02-19T08:41:51.224Z,56.84
2023-02-19T08:44:19.761Z,57.02
2023-02-19T08:46:53.459Z,56.32
2023-02-19T08:49:25.667Z,56.43
2023-02-19T08:51:53.833Z,56.11
2023-02-19T08:54:22.047Z,56.20
2023-02-19T08:56:50.147Z,56.62
2023-02-19T08:59:20.461Z,56.65
2023-02-19T09:01:49.134Z,55.97
2023-02-19T09:04:17.427Z,55.55
2023-02-19T09:06:45.893Z,55.86
2023-02-19T09:09:14.172Z,55.75
2023-02-19T09:11:42.753Z,55.67
2023-02-19T09:14:11.925Z,55.67
2023-02-19T09:16:40.947Z,55.29
2023-02-19T09:19:09.424Z,55.27
2023-02-19T09:21:37.717Z,54.92
2023-02-19T09:24:07.103Z,54.94
2023-02-19T09:26:37.126Z,54.55
2023-02-19T09:29:06.627Z,54.19
2023-02-19T09:31:35.378Z,54.25
2023-02-19T09:34:03.822Z,54.55
2023-02-19T09:36:33.565Z,54.58
2023-02-19T09:39:02.225Z,54.78
2023-02-19T09:41:32.216Z,55.02
2023-02-19T09:44:02.337Z,54.44
2023-02-19T09:46:32.870Z,54.66
2023-02-19T09:49:13.862Z,54.48
2023-02-19T09:51:45.286Z,53.98
2023-02-19T09:54:23.324Z,53.84
2023-02-19T09:56:52.188Z,53.62
2023-02-19T09:59:23.935Z,53.53
2023-02-19T10:02:03.694Z,53.44
2023-02-19T10:04:31.865Z,53.38
2023-02-19T10:07:03.849Z,53.66
2023-02-19T10:09:31.964Z,53.78
2023-02-19T10:12:00.615Z,53.85
2023-02-19T10:14:34.294Z,53.77
2023-02-19T10:17:04.316Z,53.59
2023-02-19T10:19:34.118Z,53.22
2023-02-19T10:22:02.980Z,52.99
2023-02-19T10:24:31.186Z,52.85
2023-02-19T10:26:59.258Z,52.57
2023-02-19T10:29:28.067Z,52.30
2023-02-19T10:32:24.338Z,52.18
2023-02-19T10:35:15.611Z,51.91
2023-02-19T10:37:47.976Z,52.02
2023-02-19T10:40:23.538Z,51.72
2023-02-19T10:42:59.389Z,51.27
2023-02-19T10:45:30.516Z,50.87
2023-02-19T10:47:58.895Z,50.01
2023-02-19T10:50:39.461Z,49.42
2023-02-19T10:53:08.962Z,48.72
2023-02-19T10:55:38.509Z,48.76
2023-02-19T10:58:27.856Z,49.10
2023-02-19T11:01:14.766Z,48.95
2023-02-19T11:03:43.341Z,48.99
2023-02-19T11:06:12.026Z,49.29
2023-02-19T11:08:47.851Z,49.44
2023-02-19T11:11:27.321Z,49.36
2023-02-19T11:13:57.258Z,49.40
2023-02-19T11:16:43.580Z,49.65
2023-02-19T11:19:43.968Z,48.87
2023-02-19T11:22:29.654Z,48.52
2023-02-19T11:25:10.624Z,48.26
2023-02-19T11:28:09.874Z,48.48
2023-02-19T11:30:45.272Z,48.89
2023-02-19T11:33:16.918Z,47.89
2023-02-19T11:35:45.350Z,47.05
2023-02-19T11:38:17.180Z,46.31
2023-02-19T11:41:11.325Z,46.23
2023-02-19T11:43:56.425Z,46.54
2023-02-19T11:46:49.825Z,47.06
2023-02-19T11:49:40.460Z,47.23
2023-02-19T11:52:20.663Z,47.43
2023-02-19T11:55:16.472Z,47.83
2023-02-19T11:57:53.151Z,48.03
2023-02-19T12:00:26.404Z,47.67
2023-02-19T12:03:26.980Z,47.16
2023-02-19T12:06:01.459Z,47.03
2023-02-19T12:09:02.030Z,47.17
2023-02-19T12:11:36.562Z,46.78
2023-02-19T12:14:20.005Z,46.73
2023-02-19T12:16:58.627Z,46.35
2023-02-19T12:19:27.091Z,46.23
2023-02-19T12:22:17.171Z,46.54
2023-02-19T12:24:51.467Z,46.84
2023-02-19T12:27:54.828Z,46.89
2023-02-19T12:30:28.738Z,46.93
2023-02-19T12:33:18.626Z,46.74
2023-02-19T12:35:49.824Z,46.90
2023-02-19T12:38:23.718Z,46.84
2023-02-19T12:41:36.762Z,47.03
2023-02-19T12:44:17.427Z,46.72
2023-02-19T12:46:57.637Z,46.21
2023-02-19T12:49:31.428Z,45.89
2023-02-19T12:52:02.335Z,46.18
2023-02-19T12:54:44.623Z,46.36
2023-02-19T12:57:15.880Z,46.44
2023-02-19T13:00:09.204Z,46.35
2023-02-19T13:02:40.605Z,46.16
2023-02-19T13:05:31.570Z,45.79
2023-02-19T13:08:45.333Z,45.61
2023-02-19T13:11:37.632Z,45.57
2023-02-19T13:14:32.330Z,45.76
2023-02-19T13:17:03.148Z,46.00
2023-02-19T13:19:34.854Z,46.29
2023-02-19T13:22:28.072Z,46.09
2023-02-19T13:24:58.524Z,46.03
2023-02-19T13:27:36.978Z,46.01
2023-02-19T13:30:24.176Z,46.12
2023-02-19T13:32:59.376Z,46.17
2023-02-19T13:35:55.571Z,46.18
2023-02-19T13:38:24.392Z,46.43
2023-02-19T13:41:00.205Z,46.47
2023-02-19T13:43:43.043Z,46.25
2023-02-19T13:46:12.424Z,46.32
2023-02-19T13:48:41.579Z,46.26
2023-02-19T13:51:13.165Z,46.32
2023-02-19T13:53:45.742Z,46.49
2023-02-19T13:56:35.351Z,46.78
2023-02-19T14:00:54.852Z,47.58
2023-02-19T14:03:28.175Z,47.48
2023-02-19T14:06:01.945Z,47.75
2023-02-19T14:09:28.787Z,47.87
2023-02-19T14:12:06.337Z,48.06
2023-02-19T14:14:53.441Z,48.19
2023-02-19T14:17:57.615Z,48.23
2023-02-19T14:20:35.430Z,48.24
2023-02-19T14:23:24.354Z,48.29
2023-02-19T14:25:57.365Z,48.31
2023-02-19T14:28:46.780Z,48.30
2023-02-19T14:31:38.137Z,48.20
2023-02-19T14:34:18.706Z,48.35
2023-02-19T14:36:53.577Z,48.32
2023-02-19T14:39:25.314Z,48.29
2023-02-19T14:42:00.856Z,48.36
2023-02-19T14:44:30.847Z,48.16
2023-02-19T14:47:19.322Z,47.87
2023-02-19T14:49:53.128Z,48.00
2023-02-19T14:52:41.270Z,48.25
2023-02-19T14:55:16.027Z,48.18
2023-02-19T14:57:47.967Z,48.14
2023-02-19T15:00:22.506Z,48.32
2023-02-19T15:02:51.787Z,48.48
2023-02-19T15:05:28.366Z,48.54
2023-02-19T15:07:59.031Z,48.59
2023-02-19T15:10:28.959Z,48.61
2023-02-19T15:12:59.285Z,48.63
2023-02-19T15:15:29.347Z,48.81
2023-02-19T15:17:57.428Z,48.93
2023-02-19T15:20:28.459Z,48.90
2023-02-19T15:22:58.638Z,48.96
2023-02-19T15:25:38.124Z,48.97
2023-02-19T15:28:28.222Z,48.92
2023-02-19T15:30:57.905Z,48.96
2023-02-19T15:33:27.452Z,49.06
2023-02-19T15:35:57.637Z,48.98
2023-02-19T15:38:25.934Z,49.04
2023-02-19T15:40:56.172Z,48.97
2023-02-19T15:43:25.658Z,49.06
2023-02-19T15:45:56.767Z,49.05
2023-02-19T15:48:32.337Z,49.10
2023-02-19T15:51:08.428Z,49.30
2023-02-19T15:53:40.680Z,49.18
2023-02-19T15:56:21.044Z,49.28
2023-02-19T15:58:56.485Z,49.27
2023-02-19T16:01:28.909Z,49.17
2023-02-19T16:03:57.220Z,49.27
2023-02-19T16:06:26.649Z,49.39
2023-02-19T16:09:04.849Z,49.41
2023-02-19T16:11:37.425Z,49.45
2023-02-19T16:14:19.435Z,49.44
2023-02-19T16:16:48.830Z,49.31
2023-02-19T16:19:28.586Z,49.37
2023-02-19T16:21:57.261Z,49.38
2023-02-19T16:24:31.579Z,49.36
2023-02-19T16:27:06.449Z,49.59
2023-02-19T16:29:35.230Z,49.61
2023-02-19T16:32:05.556Z,49.65
2023-02-19T16:34:41.276Z,49.71
2023-02-19T16:37:34.524Z,49.87
2023-02-19T16:40:08.764Z,49.80
2023-02-19T16:42:49.835Z,49.92
2023-02-19T16:45:18.624Z,49.92
2023-02-19T16:47:51.405Z,49.97
2023-02-19T16:50:21.010Z,49.96
2023-02-19T16:53:00.038Z,49.94
2023-02-19T16:55:28.625Z,50.05
2023-02-19T16:57:57.110Z,50.19
2023-02-19T17:00:27.330Z,50.15
2023-02-19T17:02:56.914Z,50.24
2023-02-19T17:05:26.545Z,50.30
2023-02-19T17:07:54.720Z,50.26
2023-02-19T17:10:26.481Z,50.33
2023-02-19T17:12:55.371Z,50.37
2023-02-19T17:15:23.838Z,50.40
2023-02-19T17:17:52.247Z,50.43
2023-02-19T17:20:22.964Z,50.56
2023-02-19T17:22:51.137Z,50.61
2023-02-19T17:25:19.412Z,50.75
2023-02-19T17:27:49.963Z,50.55
2023-02-19T17:30:26.443Z,50.55
2023-02-19T17:32:54.893Z,50.49
2023-02-19T17:35:23.272Z,50.77
2023-02-19T17:37:53.371Z,50.75
2023-02-19T17:40:32.769Z,50.83
2023-02-19T17:43:02.253Z,50.93
2023-02-19T17:45:33.721Z,51.00
2023-02-19T17:48:02.265Z,51.09
2023-02-19T17:50:32.088Z,51.27
2023-02-19T17:53:00.767Z,51.33
2023-02-19T17:55:29.247Z,51.56
2023-02-19T17:57:57.832Z,51.75
2023-02-19T18:00:27.819Z,51.80
2023-02-19T18:02:57.934Z,51.82
2023-02-19T18:05:26.461Z,51.84
2023-02-19T18:07:54.495Z,51.91
2023-02-19T18:10:23.738Z,52.07
2023-02-19T18:12:52.182Z,52.12
2023-02-19T18:15:26.888Z,52.20
2023-02-19T18:17:55.830Z,52.23
2023-02-19T18:20:27.294Z,52.33
2023-02-19T18:22:56.025Z,52.38
2023-02-19T18:25:24.547Z,52.39
2023-02-19T18:27:53.236Z,52.52
2023-02-19T18:30:22.887Z,52.68
2023-02-19T18:32:52.371Z,52.76
2023-02-19T18:35:21.039Z,52.90
2023-02-19T18:37:52.898Z,52.98
2023-02-19T18:40:22.297Z,53.06
2023-02-19T18:42:50.623Z,53.04
2023-02-19T18:45:18.774Z,53.23
2023-02-19T18:47:48.257Z,53.10
2023-02-19T18:50:18.482Z,52.87
2023-02-19T18:52:47.262Z,52.72
2023-02-19T18:55:15.337Z,52.57
2023-02-19T18:57:44.362Z,52.58
2023-02-19T19:00:25.553Z,52.66
2023-02-19T19:02:56.658Z,52.59
2023-02-19T19:05:25.651Z,52.71
2023-02-19T19:07:55.449Z,52.61
2023-02-19T19:10:25.588Z,52.70
2023-02-19T19:12:54.526Z,52.80
2023-02-19T19:15:22.749Z,52.76
2023-02-19T19:17:51.142Z,52.90
2023-02-19T19:20:20.746Z,52.94
2023-02-19T19:22:50.695Z,52.96
2023-02-19T19:25:19.865Z,53.14
2023-02-19T19:27:50.385Z,53.22
2023-02-19T19:30:20.211Z,53.23
2023-02-19T19:32:49.906Z,53.49
2023-02-19T19:35:18.539Z,53.52
2023-02-19T19:37:46.916Z,53.69
2023-02-19T19:40:18.208Z,53.72
2023-02-19T19:42:46.604Z,53.90
2023-02-19T19:45:15.715Z,54.15
2023-02-19T19:47:43.874Z,54.19
2023-02-19T19:50:14.604Z,54.31
2023-02-19T19:52:43.406Z,54.55
2023-02-19T19:55:11.552Z,54.74
2023-02-19T19:57:40.986Z,54.95
2023-02-19T20:00:16.215Z,54.96
2023-02-19T20:02:46.593Z,55.06
2023-02-19T20:05:17.890Z,55.04
2023-02-19T20:07:46.281Z,55.00
2023-02-19T20:10:14.742Z,54.87
2023-02-19T20:12:44.773Z,54.82
2023-02-19T20:15:13.651Z,54.68
2023-02-19T20:17:44.180Z,54.60
2023-02-19T20:20:12.766Z,54.60
2023-02-19T20:22:44.725Z,54.66
2023-02-19T20:25:13.141Z,54.46
2023-02-19T20:27:41.500Z,54.51
2023-02-19T20:30:11.513Z,54.41
2023-02-19T20:32:39.880Z,54.35
2023-02-19T20:35:09.206Z,54.28
2023-02-19T20:37:39.119Z,54.33
2023-02-19T20:40:07.940Z,54.23
2023-02-19T20:42:36.286Z,54.37
2023-02-19T20:45:08.434Z,54.36
2023-02-19T20:47:39.490Z,54.44
2023-02-19T20:50:10.456Z,54.40
2023-02-19T20:52:39.255Z,54.55
2023-02-19T20:55:08.195Z,54.60
2023-02-19T20:57:37.915Z,54.64
2023-02-19T21:00:06.752Z,54.66
2023-02-19T21:02:35.828Z,54.70
2023-02-19T21:05:04.585Z,54.78
2023-02-19T21:07:33.479Z,54.86
2023-02-19T21:10:01.956Z,54.87
2023-02-19T21:12:34.843Z,54.98
2023-02-19T21:15:04.754Z,55.11
2023-02-19T21:17:33.133Z,55.22
2023-02-19T21:20:01.717Z,55.39
2023-02-19T21:22:30.207Z,55.57
2023-02-19T21:25:00.990Z,55.61
2023-02-19T21:27:30.242Z,55.71
2023-02-19T21:29:58.433Z,55.85
2023-02-19T21:32:27.362Z,55.97
2023-02-19T21:34:55.684Z,56.01
2023-02-19T21:37:23.853Z,56.12
2023-02-19T21:39:52.564Z,56.27
2023-02-19T21:42:20.792Z,56.32
2023-02-19T21:44:49.506Z,56.49
2023-02-19T21:47:17.645Z,56.57
2023-02-19T21:49:45.958Z,56.86
2023-02-19T21:52:14.333Z,57.04
2023-02-19T21:54:43.123Z,57.01
2023-02-19T21:57:11.806Z,57.28
2023-02-19T21:59:41.832Z,57.11
2023-02-19T22:02:10.509Z,57.09
2023-02-19T22:04:39.707Z,57.20
2023-02-19T22:07:07.989Z,57.06
2023-02-19T22:09:38.429Z,57.23
2023-02-19T22:12:06.688Z,57.32
2023-02-19T22:14:37.713Z,57.56
2023-02-19T22:17:06.020Z,57.66
2023-02-19T22:19:34.235Z,57.87
2023-02-19T22:22:02.558Z,58.13
2023-02-19T22:24:32.757Z,58.28
2023-02-19T22:27:01.652Z,58.52
2023-02-19T22:29:30.258Z,58.62
2023-02-19T22:31:58.537Z,58.74
2023-02-19T22:34:26.811Z,59.00
2023-02-19T22:36:58.158Z,58.98
2023-02-19T22:39:44.467Z,59.10
2023-02-19T22:42:12.632Z,59.23
2023-02-19T22:44:43.276Z,59.17
2023-02-19T22:47:11.328Z,59.21
2023-02-19T22:49:42.087Z,59.24
2023-02-19T22:52:11.993Z,58.87
2023-02-19T22:54:41.057Z,58.66
2023-02-19T22:57:09.512Z,58.34
2023-02-19T22:59:38.160Z,58.30
2023-02-19T23:02:06.425Z,58.18
2023-02-19T23:04:35.252Z,58.05
2023-02-19T23:07:03.442Z,57.92
2023-02-19T23:09:31.568Z,57.88
2023-02-19T23:12:09.908Z,57.82
2023-02-19T23:14:38.780Z,57.77
2023-02-19T23:17:07.777Z,57.77
2023-02-19T23:19:39.216Z,57.87
2023-02-19T23:22:07.910Z,57.82
2023-02-19T23:24:36.186Z,57.80
2023-02-19T23:27:04.764Z,57.70
2023-02-19T23:29:32.944Z,57.71
2023-02-19T23:32:01.080Z,57.64
2023-02-19T23:34:29.602Z,57.62
2023-02-19T23:37:02.395Z,57.57
2023-02-19T23:39:31.115Z,57.53
2023-02-19T23:42:02.267Z,57.49
2023-02-19T23:44:31.198Z,57.56
2023-02-19T23:46:59.679Z,57.50
2023-02-19T23:49:28.056Z,57.49
2023-02-19T23:51:56.335Z,57.48
2023-02-19T23:54:24.496Z,57.46
2023-02-19T23:56:53.199Z,57.53
2023-02-19T23:59:22.035Z,57.46
